Capitol Logistics 252


KIAD
Washington Dulles International Airport
Dulles, Virginia, US
KRFD
Chicago/Rockford International Airport
Rockford, Illinois, US

Route Details

Aircraft Information
Primary: Boeing 767-300BDSF
Backup: Not Available
Route Data
Distance: 626nm
Sched. Duration: 1h 39m
Avg. Duration: 1h 56m (+16m)
Times Flown: 15
Recm'd Route: BUNZZ3 RAMAY Q72 HACKS J149 FWA V340 OXI JOT
Planned Altitude: 36,000ft
Origin Wx: KIAD 291332Z 10004KT 2SM R01R/2000VP6000FT +RA BR OVC004 14/14 A2971 RMK AO2 P0008 T01440139
Dest. Wx: KRFD 291254Z 36014KT 10SM OVC020 05/00 A2992 RMK AO2 SLP138 T00500000
Notes:

Financial History
Total Freight: 1,265,967lbs
Average Load: 84,398lbs/flt
Fuel Used: 242,299lbs
Avg. Fuel Used: 16,153lbs/flt
Fuel Expense: $311,165
Avg. Fuel Expense: $20,744
Avg. Fuel Cost: $1.26/lbs
Total Gross Income: $1,670,881
Pilot Pay: $2,315
Total Expenses: $177,857
Total Revenue: $1,176,011
Average Revenue: $111,392.05